sensor_id;sensor_type;location;lat;lon;timestamp;pressure;altitude;pressure_sealevel;temperature;humidity
29215;BME280;16252;49.816;7.964;2023-05-19T00:00:52;100730.72;;;14.64;39.46
29215;BME280;16252;49.816;7.964;2023-05-19T00:03:17;100729.25;;;14.60;39.35
29215;BME280;16252;49.816;7.964;2023-05-19T00:05:47;100741.88;;;14.59;39.32
29215;BME280;16252;49.816;7.964;2023-05-19T00:08:15;100739.44;;;14.56;39.80
29215;BME280;16252;49.816;7.964;2023-05-19T00:10:41;100736.47;;;14.48;39.48
29215;BME280;16252;49.816;7.964;2023-05-19T00:13:07;100741.84;;;14.48;39.70
29215;BME280;16252;49.816;7.964;2023-05-19T00:15:32;100718.00;;;14.32;39.73
29215;BME280;16252;49.816;7.964;2023-05-19T00:17:57;100715.94;;;14.24;39.97
29215;BME280;16252;49.816;7.964;2023-05-19T00:20:23;100729.28;;;14.26;40.14
29215;BME280;16252;49.816;7.964;2023-05-19T00:22:48;100735.25;;;14.29;39.93
29215;BME280;16252;49.816;7.964;2023-05-19T00:25:15;100712.66;;;14.21;39.97
29215;BME280;16252;49.816;7.964;2023-05-19T00:27:40;100721.94;;;14.17;40.13
29215;BME280;16252;49.816;7.964;2023-05-19T00:30:06;100697.84;;;14.04;40.17
29215;BME280;16252;49.816;7.964;2023-05-19T00:32:31;100735.88;;;14.22;40.32
29215;BME280;16252;49.816;7.964;2023-05-19T00:34:58;100729.75;;;14.20;40.42
29215;BME280;16252;49.816;7.964;2023-05-19T00:37:26;100697.34;;;13.99;40.40
29215;BME280;16252;49.816;7.964;2023-05-19T00:39:51;100723.63;;;14.06;40.56
29215;BME280;16252;49.816;7.964;2023-05-19T00:42:17;100713.25;;;14.02;40.37
29215;BME280;16252;49.816;7.964;2023-05-19T00:44:42;100732.47;;;14.08;40.82
29215;BME280;16252;49.816;7.964;2023-05-19T00:47:08;100700.53;;;13.93;40.55
29215;BME280;16252;49.816;7.964;2023-05-19T00:49:34;100704.31;;;13.90;40.71
29215;BME280;16252;49.816;7.964;2023-05-19T00:52:00;100710.41;;;13.92;40.69
29215;BME280;16252;49.816;7.964;2023-05-19T00:54:26;100664.44;;;13.61;41.08
29215;BME280;16252;49.816;7.964;2023-05-19T00:56:53;100704.06;;;13.82;40.86
29215;BME280;16252;49.816;7.964;2023-05-19T00:59:19;100708.09;;;13.76;41.07
29215;BME280;16252;49.816;7.964;2023-05-19T01:01:45;100694.41;;;13.68;41.31
29215;BME280;16252;49.816;7.964;2023-05-19T01:04:17;100710.19;;;13.73;41.28
29215;BME280;16252;49.816;7.964;2023-05-19T01:06:46;100698.44;;;13.62;41.59
29215;BME280;16252;49.816;7.964;2023-05-19T01:09:11;100712.38;;;13.68;41.42
29215;BME280;16252;49.816;7.964;2023-05-19T01:11:36;100694.50;;;13.55;41.40
29215;BME280;16252;49.816;7.964;2023-05-19T01:14:02;100702.81;;;13.52;41.21
29215;BME280;16252;49.816;7.964;2023-05-19T01:16:30;100702.41;;;13.57;41.51
29215;BME280;16252;49.816;7.964;2023-05-19T01:22:26;100699.22;;;13.52;40.91
29215;BME280;16252;49.816;7.964;2023-05-19T01:25:07;100711.22;;;13.48;41.38
29215;BME280;16252;49.816;7.964;2023-05-19T01:30:38;100694.34;;;13.21;41.31
29215;BME280;16252;49.816;7.964;2023-05-19T01:33:08;100698.72;;;13.11;41.34
29215;BME280;16252;49.816;7.964;2023-05-19T01:35:35;100714.84;;;13.11;41.39
29215;BME280;16252;49.816;7.964;2023-05-19T01:38:02;100718.97;;;13.04;41.58
29215;BME280;16252;49.816;7.964;2023-05-19T01:40:29;100692.03;;;12.82;41.67
29215;BME280;16252;49.816;7.964;2023-05-19T01:42:56;100721.75;;;12.91;41.91
29215;BME280;16252;49.816;7.964;2023-05-19T01:45:23;100672.44;;;12.55;41.82
29215;BME280;16252;49.816;7.964;2023-05-19T01:47:51;100692.28;;;12.66;42.06
29215;BME280;16252;49.816;7.964;2023-05-19T01:50:17;100681.50;;;12.54;42.05
29215;BME280;16252;49.816;7.964;2023-05-19T01:52:42;100717.09;;;12.69;42.10
29215;BME280;16252;49.816;7.964;2023-05-19T01:55:08;100692.56;;;12.50;41.99
29215;BME280;16252;49.816;7.964;2023-05-19T02:08:33;100721.47;;;12.46;42.24
29215;BME280;16252;49.816;7.964;2023-05-19T02:11:37;100707.31;;;12.31;42.18
29215;BME280;16252;49.816;7.964;2023-05-19T02:14:12;100729.41;;;12.35;42.42
29215;BME280;16252;49.816;7.964;2023-05-19T02:16:38;100722.47;;;12.20;42.12
29215;BME280;16252;49.816;7.964;2023-05-19T02:19:06;100719.50;;;12.11;42.36
29215;BME280;16252;49.816;7.964;2023-05-19T02:21:43;100723.16;;;12.10;42.28
29215;BME280;16252;49.816;7.964;2023-05-19T02:24:08;100698.28;;;11.96;42.30
29215;BME280;16252;49.816;7.964;2023-05-19T02:26:34;100711.47;;;11.99;42.39
29215;BME280;16252;49.816;7.964;2023-05-19T02:28:59;100710.84;;;11.95;42.52
29215;BME280;16252;49.816;7.964;2023-05-19T02:31:24;100701.03;;;11.81;42.61
29215;BME280;16252;49.816;7.964;2023-05-19T02:33:50;100705.09;;;11.74;42.75
29215;BME280;16252;49.816;7.964;2023-05-19T02:36:15;100703.41;;;11.73;42.90
29215;BME280;16252;49.816;7.964;2023-05-19T02:38:40;100709.72;;;11.72;42.74
29215;BME280;16252;49.816;7.964;2023-05-19T02:41:05;100709.84;;;11.70;43.04
29215;BME280;16252;49.816;7.964;2023-05-19T02:43:30;100695.44;;;11.59;43.06
29215;BME280;16252;49.816;7.964;2023-05-19T02:45:56;100693.00;;;11.56;43.07
29215;BME280;16252;49.816;7.964;2023-05-19T02:48:21;100695.03;;;11.52;43.05
29215;BME280;16252;49.816;7.964;2023-05-19T02:50:46;100698.88;;;11.48;43.05
29215;BME280;16252;49.816;7.964;2023-05-19T02:53:11;100686.09;;;11.39;43.24
29215;BME280;16252;49.816;7.964;2023-05-19T02:55:37;100695.66;;;11.43;43.33
29215;BME280;16252;49.816;7.964;2023-05-19T02:58:02;100702.94;;;11.41;43.44
29215;BME280;16252;49.816;7.964;2023-05-19T03:00:28;100680.50;;;11.29;43.35
29215;BME280;16252;49.816;7.964;2023-05-19T03:02:53;100680.84;;;11.24;43.45
29215;BME280;16252;49.816;7.964;2023-05-19T03:05:19;100694.78;;;11.30;43.63
29215;BME280;16252;49.816;7.964;2023-05-19T03:07:44;100690.38;;;11.28;43.43
29215;BME280;16252;49.816;7.964;2023-05-19T03:10:10;100697.47;;;11.30;43.42
29215;BME280;16252;49.816;7.964;2023-05-19T03:12:35;100688.00;;;11.24;43.57
29215;BME280;16252;49.816;7.964;2023-05-19T03:15:01;100675.25;;;11.15;43.44
29215;BME280;16252;49.816;7.964;2023-05-19T03:17:26;100690.34;;;11.16;43.54
29215;BME280;16252;49.816;7.964;2023-05-19T03:19:57;100694.09;;;11.13;43.55
29215;BME280;16252;49.816;7.964;2023-05-19T03:22:22;100696.69;;;11.15;43.72
29215;BME280;16252;49.816;7.964;2023-05-19T03:24:47;100667.91;;;10.91;43.67
29215;BME280;16252;49.816;7.964;2023-05-19T03:27:15;100693.00;;;11.03;43.72
29215;BME280;16252;49.816;7.964;2023-05-19T03:29:40;100693.44;;;10.97;43.99
29215;BME280;16252;49.816;7.964;2023-05-19T03:32:06;100683.25;;;10.89;43.91
29215;BME280;16252;49.816;7.964;2023-05-19T03:34:31;100703.28;;;10.96;44.03
29215;BME280;16252;49.816;7.964;2023-05-19T03:36:56;100685.25;;;10.85;43.98
29215;BME280;16252;49.816;7.964;2023-05-19T03:39:21;100707.00;;;10.94;44.13
29215;BME280;16252;49.816;7.964;2023-05-19T03:41:47;100701.09;;;10.89;44.06
29215;BME280;16252;49.816;7.964;2023-05-19T03:44:12;100687.50;;;10.79;44.21
29215;BME280;16252;49.816;7.964;2023-05-19T03:46:37;100695.31;;;10.82;44.00
29215;BME280;16252;49.816;7.964;2023-05-19T03:49:02;100690.03;;;10.80;44.17
29215;BME280;16252;49.816;7.964;2023-05-19T03:51:28;100710.09;;;10.88;44.22
29215;BME280;16252;49.816;7.964;2023-05-19T03:53:54;100691.88;;;10.80;44.32
29215;BME280;16252;49.816;7.964;2023-05-19T03:56:19;100677.38;;;10.70;44.43
29215;BME280;16252;49.816;7.964;2023-05-19T03:58:47;100698.06;;;10.80;44.25
29215;BME280;16252;49.816;7.964;2023-05-19T04:01:14;100704.50;;;10.78;44.43
29215;BME280;16252;49.816;7.964;2023-05-19T04:03:39;100695.91;;;10.73;44.29
29215;BME280;16252;49.816;7.964;2023-05-19T04:06:04;100690.75;;;10.70;44.25
29215;BME280;16252;49.816;7.964;2023-05-19T04:08:30;100699.09;;;10.65;44.49
29215;BME280;16252;49.816;7.964;2023-05-19T04:10:56;100699.84;;;10.67;44.42
29215;BME280;16252;49.816;7.964;2023-05-19T04:13:21;100705.84;;;10.71;44.59
29215;BME280;16252;49.816;7.964;2023-05-19T04:15:46;100708.53;;;10.71;44.55
29215;BME280;16252;49.816;7.964;2023-05-19T04:18:12;100689.00;;;10.56;44.68
29215;BME280;16252;49.816;7.964;2023-05-19T04:20:37;100707.78;;;10.69;44.80
29215;BME280;16252;49.816;7.964;2023-05-19T04:23:02;100701.75;;;10.65;44.71
29215;BME280;16252;49.816;7.964;2023-05-19T04:25:27;100693.19;;;10.60;44.86
29215;BME280;16252;49.816;7.964;2023-05-19T04:27:53;100705.41;;;10.64;44.98
29215;BME280;16252;49.816;7.964;2023-05-19T04:30:21;100707.25;;;10.63;44.84
29215;BME280;16252;49.816;7.964;2023-05-19T04:32:47;100721.91;;;10.71;45.17
29215;BME280;16252;49.816;7.964;2023-05-19T04:35:15;100714.38;;;10.63;45.00
29215;BME280;16252;49.816;7.964;2023-05-19T04:37:44;100721.25;;;10.67;45.00
29215;BME280;16252;49.816;7.964;2023-05-19T04:40:12;100729.94;;;10.71;45.19
29215;BME280;16252;49.816;7.964;2023-05-19T04:42:38;100728.16;;;10.71;45.29
29215;BME280;16252;49.816;7.964;2023-05-19T04:45:08;100711.16;;;10.58;45.49
29215;BME280;16252;49.816;7.964;2023-05-19T04:47:36;100709.78;;;10.65;46.00
29215;BME280;16252;49.816;7.964;2023-05-19T04:50:03;100722.22;;;10.66;45.76
29215;BME280;16252;49.816;7.964;2023-05-19T04:52:28;100720.41;;;10.67;45.81
29215;BME280;16252;49.816;7.964;2023-05-19T04:54:54;100722.78;;;10.71;45.55
29215;BME280;16252;49.816;7.964;2023-05-19T04:57:19;100726.13;;;10.75;45.87
29215;BME280;16252;49.816;7.964;2023-05-19T04:59:44;100718.63;;;10.80;46.04
29215;BME280;16252;49.816;7.964;2023-05-19T05:02:10;100689.16;;;10.67;46.01
29215;BME280;16252;49.816;7.964;2023-05-19T05:04:35;100731.78;;;10.97;46.19
29215;BME280;16252;49.816;7.964;2023-05-19T05:07:01;100732.31;;;11.02;46.26
29215;BME280;16252;49.816;7.964;2023-05-19T05:09:26;100707.97;;;10.93;46.29
29215;BME280;16252;49.816;7.964;2023-05-19T05:11:52;100726.53;;;11.09;46.32
29215;BME280;16252;49.816;7.964;2023-05-19T05:14:18;100715.97;;;11.07;46.48
29215;BME280;16252;49.816;7.964;2023-05-19T05:16:43;100722.50;;;11.16;46.58
29215;BME280;16252;49.816;7.964;2023-05-19T05:19:09;100734.09;;;11.29;46.76
29215;BME280;16252;49.816;7.964;2023-05-19T05:21:35;100739.38;;;11.31;46.88
29215;BME280;16252;49.816;7.964;2023-05-19T05:24:01;100728.97;;;11.39;47.17
29215;BME280;16252;49.816;7.964;2023-05-19T05:26:29;100709.38;;;11.38;47.17
29215;BME280;16252;49.816;7.964;2023-05-19T05:28:55;100711.31;;;11.49;47.06
29215;BME280;16252;49.816;7.964;2023-05-19T05:31:21;100719.69;;;11.57;47.19
29215;BME280;16252;49.816;7.964;2023-05-19T05:33:46;100719.25;;;11.63;47.36
29215;BME280;16252;49.816;7.964;2023-05-19T05:36:11;100711.84;;;11.67;47.42
29215;BME280;16252;49.816;7.964;2023-05-19T05:38:37;100718.94;;;11.81;47.01
29215;BME280;16252;49.816;7.964;2023-05-19T05:41:03;100721.88;;;11.90;47.01
29215;BME280;16252;49.816;7.964;2023-05-19T05:43:28;100706.41;;;11.94;47.19
29215;BME280;16252;49.816;7.964;2023-05-19T05:45:55;100705.25;;;11.98;47.34
29215;BME280;16252;49.816;7.964;2023-05-19T05:48:21;100698.56;;;12.04;47.39
29215;BME280;16252;49.816;7.964;2023-05-19T05:50:47;100692.66;;;12.11;47.33
29215;BME280;16252;49.816;7.964;2023-05-19T05:53:17;100699.69;;;12.25;47.42
29215;BME280;16252;49.816;7.964;2023-05-19T05:55:42;100698.53;;;12.29;47.01
29215;BME280;16252;49.816;7.964;2023-05-19T05:58:08;100702.34;;;12.38;47.03
29215;BME280;16252;49.816;7.964;2023-05-19T06:00:36;100710.16;;;12.54;46.85
29215;BME280;16252;49.816;7.964;2023-05-19T06:03:02;100690.72;;;12.50;46.72
29215;BME280;16252;49.816;7.964;2023-05-19T06:05:28;100701.31;;;12.65;46.71
29215;BME280;16252;49.816;7.964;2023-05-19T06:07:53;100699.25;;;12.68;46.36
29215;BME280;16252;49.816;7.964;2023-05-19T06:10:18;100708.22;;;12.80;46.83
29215;BME280;16252;49.816;7.964;2023-05-19T06:12:44;100704.63;;;12.92;46.72
29215;BME280;16252;49.816;7.964;2023-05-19T06:15:09;100722.28;;;13.08;46.71
29215;BME280;16252;49.816;7.964;2023-05-19T06:17:35;100710.34;;;13.12;46.40
29215;BME280;16252;49.816;7.964;2023-05-19T06:20:01;100685.00;;;13.03;46.24
29215;BME280;16252;49.816;7.964;2023-05-19T06:22:26;100687.13;;;13.11;46.49
29215;BME280;16252;49.816;7.964;2023-05-19T06:24:52;100702.25;;;13.36;46.14
29215;BME280;16252;49.816;7.964;2023-05-19T06:27:18;100693.75;;;13.42;45.94
29215;BME280;16252;49.816;7.964;2023-05-19T06:29:43;100687.97;;;13.47;46.42
29215;BME280;16252;49.816;7.964;2023-05-19T06:32:08;100699.28;;;13.63;46.28
29215;BME280;16252;49.816;7.964;2023-05-19T06:34:34;100692.91;;;13.64;46.05
29215;BME280;16252;49.816;7.964;2023-05-19T06:36:59;100667.13;;;13.61;46.30
29215;BME280;16252;49.816;7.964;2023-05-19T06:39:26;100716.53;;;13.94;46.05
29215;BME280;16252;49.816;7.964;2023-05-19T06:41:51;100684.88;;;13.86;46.14
29215;BME280;16252;49.816;7.964;2023-05-19T06:44:17;100672.75;;;13.92;46.23
29215;BME280;16252;49.816;7.964;2023-05-19T06:46:42;100671.41;;;14.09;46.13
29215;BME280;16252;49.816;7.964;2023-05-19T06:49:09;100668.47;;;14.23;46.12
29215;BME280;16252;49.816;7.964;2023-05-19T06:51:34;100694.25;;;14.48;45.92
29215;BME280;16252;49.816;7.964;2023-05-19T06:53:59;100671.97;;;14.46;46.25
29215;BME280;16252;49.816;7.964;2023-05-19T06:56:25;100688.13;;;14.69;46.09
29215;BME280;16252;49.816;7.964;2023-05-19T06:58:50;100671.53;;;14.73;46.00
29215;BME280;16252;49.816;7.964;2023-05-19T07:01:15;100695.22;;;15.02;46.32
29215;BME280;16252;49.816;7.964;2023-05-19T07:03:41;100689.56;;;15.05;45.99
29215;BME280;16252;49.816;7.964;2023-05-19T07:06:06;100706.03;;;15.23;46.01
29215;BME280;16252;49.816;7.964;2023-05-19T07:08:31;100682.38;;;15.27;46.13
29215;BME280;16252;49.816;7.964;2023-05-19T07:10:57;100663.09;;;15.31;45.44
29215;BME280;16252;49.816;7.964;2023-05-19T07:13:22;100682.66;;;15.54;45.02
29215;BME280;16252;49.816;7.964;2023-05-19T07:15:47;100695.19;;;15.76;44.72
29215;BME280;16252;49.816;7.964;2023-05-19T07:18:13;100657.34;;;15.67;44.30
29215;BME280;16252;49.816;7.964;2023-05-19T07:20:39;100693.06;;;16.01;44.21
29215;BME280;16252;49.816;7.964;2023-05-19T07:23:04;100676.19;;;16.09;43.96
29215;BME280;16252;49.816;7.964;2023-05-19T07:25:32;100670.09;;;16.16;43.92
29215;BME280;16252;49.816;7.964;2023-05-19T07:27:58;100696.31;;;16.45;43.56
29215;BME280;16252;49.816;7.964;2023-05-19T07:30:25;100656.25;;;16.50;43.77
29215;BME280;16252;49.816;7.964;2023-05-19T07:32:50;100683.78;;;16.84;43.87
29215;BME280;16252;49.816;7.964;2023-05-19T07:35:16;100674.38;;;17.18;43.71
29215;BME280;16252;49.816;7.964;2023-05-19T07:37:41;100659.66;;;17.49;43.96
29215;BME280;16252;49.816;7.964;2023-05-19T07:40:07;100663.97;;;17.99;43.05
29215;BME280;16252;49.816;7.964;2023-05-19T07:42:32;100681.38;;;18.52;42.64
29215;BME280;16252;49.816;7.964;2023-05-19T07:44:58;100668.97;;;18.95;42.63
29215;BME280;16252;49.816;7.964;2023-05-19T07:47:23;100664.50;;;19.47;42.23
29215;BME280;16252;49.816;7.964;2023-05-19T07:49:48;100644.13;;;19.96;41.38
29215;BME280;16252;49.816;7.964;2023-05-19T07:52:13;100663.56;;;20.68;41.03
29215;BME280;16252;49.816;7.964;2023-05-19T07:54:39;100645.78;;;21.23;40.32
29215;BME280;16252;49.816;7.964;2023-05-19T07:57:04;100675.63;;;21.96;40.44
29215;BME280;16252;49.816;7.964;2023-05-19T07:59:30;100664.84;;;22.59;39.62
29215;BME280;16252;49.816;7.964;2023-05-19T08:01:55;100660.81;;;23.24;38.63
29215;BME280;16252;49.816;7.964;2023-05-19T08:04:20;100683.09;;;24.03;37.43
29215;BME280;16252;49.816;7.964;2023-05-19T08:06:46;100658.88;;;24.66;36.85
29215;BME280;16252;49.816;7.964;2023-05-19T08:09:11;100667.22;;;25.37;36.47
29215;BME280;16252;49.816;7.964;2023-05-19T08:11:36;100688.16;;;26.08;36.02
29215;BME280;16252;49.816;7.964;2023-05-19T08:14:02;100682.16;;;26.74;34.97
29215;BME280;16252;49.816;7.964;2023-05-19T08:16:28;100655.66;;;27.28;34.58
29215;BME280;16252;49.816;7.964;2023-05-19T08:18:53;100667.03;;;27.91;33.74
29215;BME280;16252;49.816;7.964;2023-05-19T08:21:19;100667.72;;;28.51;33.27
29215;BME280;16252;49.816;7.964;2023-05-19T08:23:45;100646.41;;;29.04;32.69
29215;BME280;16252;49.816;7.964;2023-05-19T08:26:10;100663.78;;;29.61;31.55
29215;BME280;16252;49.816;7.964;2023-05-19T08:28:36;100660.97;;;30.11;30.33
29215;BME280;16252;49.816;7.964;2023-05-19T08:31:01;100650.72;;;30.49;30.17
29215;BME280;16252;49.816;7.964;2023-05-19T08:33:26;100649.97;;;30.90;29.80
29215;BME280;16252;49.816;7.964;2023-05-19T08:35:52;100629.63;;;31.15;29.61
29215;BME280;16252;49.816;7.964;2023-05-19T08:38:19;100632.44;;;31.50;28.63
29215;BME280;16252;49.816;7.964;2023-05-19T08:40:45;100653.97;;;31.95;28.52
29215;BME280;16252;49.816;7.964;2023-05-19T08:43:11;100640.31;;;32.17;27.97
29215;BME280;16252;49.816;7.964;2023-05-19T08:45:39;100639.41;;;32.52;27.67
29215;BME280;16252;49.816;7.964;2023-05-19T08:48:07;100645.94;;;32.91;26.82
29215;BME280;16252;49.816;7.964;2023-05-19T08:50:38;100639.22;;;33.16;26.17
29215;BME280;16252;49.816;7.964;2023-05-19T08:53:11;100642.22;;;33.48;26.18
29215;BME280;16252;49.816;7.964;2023-05-19T08:58:17;100628.47;;;33.92;25.04
29215;BME280;16252;49.816;7.964;2023-05-19T09:00:45;100635.47;;;34.17;25.33
29215;BME280;16252;49.816;7.964;2023-05-19T09:03:11;100633.31;;;34.46;24.97
29215;BME280;16252;49.816;7.964;2023-05-19T09:05:37;100616.28;;;34.59;24.37
29215;BME280;16252;49.816;7.964;2023-05-19T09:08:03;100603.19;;;34.82;23.96
29215;BME280;16252;49.816;7.964;2023-05-19T09:10:28;100602.81;;;35.05;23.08
29215;BME280;16252;49.816;7.964;2023-05-19T09:12:54;100611.09;;;35.27;23.39
29215;BME280;16252;49.816;7.964;2023-05-19T09:15:19;100609.88;;;35.50;23.18
29215;BME280;16252;49.816;7.964;2023-05-19T09:17:49;100612.50;;;35.72;22.89
29215;BME280;16252;49.816;7.964;2023-05-19T09:20:16;100612.31;;;35.84;23.32
29215;BME280;16252;49.816;7.964;2023-05-19T09:22:43;100617.75;;;36.11;22.55
29215;BME280;16252;49.816;7.964;2023-05-19T09:25:24;100587.97;;;36.12;22.16
29215;BME280;16252;49.816;7.964;2023-05-19T09:27:50;100599.41;;;36.26;21.59
29215;BME280;16252;49.816;7.964;2023-05-19T09:30:17;100600.31;;;36.47;21.51
29215;BME280;16252;49.816;7.964;2023-05-19T09:32:43;100577.19;;;36.51;21.52
29215;BME280;16252;49.816;7.964;2023-05-19T09:35:10;100587.28;;;36.73;21.88
29215;BME280;16252;49.816;7.964;2023-05-19T09:37:38;100597.63;;;36.93;21.32
29215;BME280;16252;49.816;7.964;2023-05-19T09:40:06;100595.44;;;37.10;21.05
29215;BME280;16252;49.816;7.964;2023-05-19T09:42:36;100596.50;;;37.29;20.40
29215;BME280;16252;49.816;7.964;2023-05-19T09:45:02;100579.47;;;37.36;20.09
29215;BME280;16252;49.816;7.964;2023-05-19T09:47:38;100578.91;;;37.55;21.21
29215;BME280;16252;49.816;7.964;2023-05-19T09:50:05;100588.09;;;37.70;20.17
29215;BME280;16252;49.816;7.964;2023-05-19T09:52:41;100567.66;;;37.75;19.71
29215;BME280;16252;49.816;7.964;2023-05-19T09:55:09;100585.72;;;38.03;19.31
29215;BME280;16252;49.816;7.964;2023-05-19T09:57:36;100574.78;;;38.17;19.49
29215;BME280;16252;49.816;7.964;2023-05-19T10:00:06;100591.44;;;38.37;19.15
29215;BME280;16252;49.816;7.964;2023-05-19T10:02:46;100557.94;;;38.32;18.66
29215;BME280;16252;49.816;7.964;2023-05-19T10:05:13;100567.34;;;38.52;18.56
29215;BME280;16252;49.816;7.964;2023-05-19T10:07:44;100548.84;;;38.56;17.99
29215;BME280;16252;49.816;7.964;2023-05-19T10:10:12;100581.88;;;38.88;20.72
29215;BME280;16252;49.816;7.964;2023-05-19T10:12:38;100563.84;;;38.70;18.30
29215;BME280;16252;49.816;7.964;2023-05-19T10:15:09;100580.50;;;38.86;19.00
29215;BME280;16252;49.816;7.964;2023-05-19T10:17:37;100538.34;;;38.77;18.53
29215;BME280;16252;49.816;7.964;2023-05-19T10:20:02;100545.31;;;38.79;18.35
29215;BME280;16252;49.816;7.964;2023-05-19T10:22:29;100564.75;;;39.00;17.51
29215;BME280;16252;49.816;7.964;2023-05-19T10:24:54;100551.09;;;38.93;17.20
29215;BME280;16252;49.816;7.964;2023-05-19T10:27:21;100565.00;;;39.04;17.74
29215;BME280;16252;49.816;7.964;2023-05-19T10:29:48;100564.41;;;39.07;17.37
29215;BME280;16252;49.816;7.964;2023-05-19T10:32:18;100544.63;;;38.98;17.57
29215;BME280;16252;49.816;7.964;2023-05-19T10:38:00;100527.34;;;38.91;18.09
29215;BME280;16252;49.816;7.964;2023-05-19T10:40:37;100529.81;;;38.97;17.50
29215;BME280;16252;49.816;7.964;2023-05-19T10:45:54;100507.88;;;38.75;16.79
29215;BME280;16252;49.816;7.964;2023-05-19T10:48:20;100527.84;;;38.58;16.44
29215;BME280;16252;49.816;7.964;2023-05-19T10:50:53;100519.47;;;38.19;17.07
29215;BME280;16252;49.816;7.964;2023-05-19T10:53:18;100529.44;;;37.76;16.71
29215;BME280;16252;49.816;7.964;2023-05-19T10:55:51;100518.41;;;37.19;17.18
29215;BME280;16252;49.816;7.964;2023-05-19T10:58:37;100541.28;;;36.70;18.03
29215;BME280;16252;49.816;7.964;2023-05-19T11:01:06;100532.47;;;36.00;17.44
29215;BME280;16252;49.816;7.964;2023-05-19T11:03:44;100519.09;;;35.44;17.94
29215;BME280;16252;49.816;7.964;2023-05-19T11:06:24;100515.66;;;34.84;18.73
29215;BME280;16252;49.816;7.964;2023-05-19T11:08:54;100532.19;;;34.74;19.32
29215;BME280;16252;49.816;7.964;2023-05-19T11:11:20;100539.44;;;33.99;18.48
29215;BME280;16252;49.816;7.964;2023-05-19T11:13:49;100520.34;;;33.41;19.12
29215;BME280;16252;49.816;7.964;2023-05-19T11:16:18;100522.03;;;33.03;19.33
29215;BME280;16252;49.816;7.964;2023-05-19T11:18:47;100535.44;;;32.78;19.01
29215;BME280;16252;49.816;7.964;2023-05-19T11:21:13;100509.75;;;32.37;19.43
29215;BME280;16252;49.816;7.964;2023-05-19T11:23:38;100486.13;;;31.89;19.87
29215;BME280;16252;49.816;7.964;2023-05-19T11:26:05;100517.06;;;31.86;20.10
29215;BME280;16252;49.816;7.964;2023-05-19T11:28:32;100517.38;;;31.61;20.03
29215;BME280;16252;49.816;7.964;2023-05-19T11:30:59;100510.53;;;31.40;20.38
29215;BME280;16252;49.816;7.964;2023-05-19T11:33:25;100506.69;;;31.17;20.43
29215;BME280;16252;49.816;7.964;2023-05-19T11:35:53;100508.22;;;31.01;20.46
29215;BME280;16252;49.816;7.964;2023-05-19T11:38:19;100496.91;;;30.67;20.54
29215;BME280;16252;49.816;7.964;2023-05-19T11:40:47;100489.16;;;30.46;20.25
29215;BME280;16252;49.816;7.964;2023-05-19T11:43:13;100509.44;;;30.40;20.41
29215;BME280;16252;49.816;7.964;2023-05-19T11:45:39;100491.69;;;30.17;21.11
29215;BME280;16252;49.816;7.964;2023-05-19T11:48:04;100478.88;;;29.93;20.94
29215;BME280;16252;49.816;7.964;2023-05-19T11:50:31;100473.94;;;29.83;21.20
29215;BME280;16252;49.816;7.964;2023-05-19T11:52:59;100494.22;;;29.89;20.90
29215;BME280;16252;49.816;7.964;2023-05-19T11:55:25;100488.13;;;29.68;21.34
29215;BME280;16252;49.816;7.964;2023-05-19T11:58:10;100460.84;;;29.60;21.69
29215;BME280;16252;49.816;7.964;2023-05-19T12:00:38;100476.91;;;29.63;21.35
29215;BME280;16252;49.816;7.964;2023-05-19T12:03:04;100481.44;;;29.57;21.73
29215;BME280;16252;49.816;7.964;2023-05-19T12:05:29;100450.28;;;29.38;21.72
29215;BME280;16252;49.816;7.964;2023-05-19T12:07:55;100492.00;;;29.60;22.08
29215;BME280;16252;49.816;7.964;2023-05-19T12:10:29;100476.91;;;29.63;22.06
29215;BME280;16252;49.816;7.964;2023-05-19T12:12:55;100472.78;;;29.54;21.54
29215;BME280;16252;49.816;7.964;2023-05-19T12:15:22;100466.81;;;29.38;21.79
29215;BME280;16252;49.816;7.964;2023-05-19T12:17:58;100445.97;;;29.24;22.08
29215;BME280;16252;49.816;7.964;2023-05-19T12:20:25;100479.19;;;29.29;21.95
29215;BME280;16252;49.816;7.964;2023-05-19T12:22:51;100485.16;;;29.26;22.12
29215;BME280;16252;49.816;7.964;2023-05-19T12:25:17;100482.03;;;29.23;22.24
29215;BME280;16252;49.816;7.964;2023-05-19T12:27:43;100471.16;;;29.09;22.28
29215;BME280;16252;49.816;7.964;2023-05-19T12:30:10;100485.31;;;29.13;22.37
29215;BME280;16252;49.816;7.964;2023-05-19T12:32:36;100468.84;;;29.06;22.48
29215;BME280;16252;49.816;7.964;2023-05-19T12:35:03;100474.34;;;29.06;22.57
29215;BME280;16252;49.816;7.964;2023-05-19T12:37:30;100468.75;;;28.94;22.64
29215;BME280;16252;49.816;7.964;2023-05-19T12:39:57;100472.53;;;28.93;23.31
29215;BME280;16252;49.816;7.964;2023-05-19T12:42:25;100476.38;;;28.92;22.83
29215;BME280;16252;49.816;7.964;2023-05-19T12:44:54;100450.31;;;28.70;23.29
29215;BME280;16252;49.816;7.964;2023-05-19T12:47:21;100466.47;;;28.66;23.19
29215;BME280;16252;49.816;7.964;2023-05-19T12:50:13;100458.19;;;28.66;23.03
29215;BME280;16252;49.816;7.964;2023-05-19T12:52:44;100475.81;;;28.59;22.96
29215;BME280;16252;49.816;7.964;2023-05-19T12:55:10;100462.41;;;28.37;22.91
29215;BME280;16252;49.816;7.964;2023-05-19T12:57:46;100469.56;;;28.45;22.79
29215;BME280;16252;49.816;7.964;2023-05-19T13:00:14;100457.19;;;28.29;22.67
29215;BME280;16252;49.816;7.964;2023-05-19T13:02:54;100448.09;;;28.28;23.13
29215;BME280;16252;49.816;7.964;2023-05-19T13:05:20;100467.84;;;28.19;23.00
29215;BME280;16252;49.816;7.964;2023-05-19T13:08:01;100437.88;;;28.04;23.29
29215;BME280;16252;49.816;7.964;2023-05-19T13:10:28;100435.44;;;27.89;23.16
29215;BME280;16252;49.816;7.964;2023-05-19T13:12:55;100435.25;;;27.84;23.58
29215;BME280;16252;49.816;7.964;2023-05-19T13:15:22;100446.03;;;27.79;23.59